x

Western Caribbean - 195 Nm Wsw Of Negril Jamiaca (42057) Wave Buoy

12:50 - Sun 30th Aug 2015 All times are UTC.

  • Sig Wave height 4.9ft
  • Swell Direction
  • Peak Period 11s
  • Average Period 5s
  • Wind
    18mph, 22mph gusts
  • Sea Temp 84°f
  • Aire Temp 85°f
  • Sea Pressure 1012.2mb

More Historic Weather Station data

Upgrade to MSW Pro to gain access to the past 30 days of data for over 8000 Wavebouys and Weather Stations around the globe.

Join Pro

Comparision Forecast

View Surf forecast
   
dom 08/30 12:50 5ft 11s 5s 18 22 mph 1012.2mb 84f 85f
11:50 4.5ft 12s 5s 18 22 mph 1011.4mb 84f 85f
10:50 5ft 12s 5s 18 22 mph 1010.8mb 84f 85f
9:50 4.5ft 12s 5s 20 22 mph 1009.9mb 84f 85f
8:50 4.5ft 12s 5s 16 18 mph 1009.8mb 85f 84f
7:50 4ft 8s 5s 16 18 mph 1010.2mb 85f 85f
6:50 4ft 4s 4s 18 20 mph 1010.6mb 85f 85f
5:50 3.5ft 7s 4s 18 20 mph 1011mb 85f 85f
4:50 3.5ft 7s 4s 18 20 mph 1011.5mb 85f 85f
3:50 2.5ft 7s 5s 16 20 mph 1011.9mb 85f 84f
2:50 2.5ft 7s 5s 13 16 mph 1011.8mb 85f 85f
1:50 2.5ft 7s 4s 13 16 mph 1011.4mb 85f 85f
12:50 2.5ft 11s 4s 13 16 mph 1010.6mb 85f 85f
sáb 08/29 11:50 2.5ft 7s 5s 11 13 mph 1010mb 85f 85f
10:50 2.5ft 8s 4s 11 13 mph 1010.1mb 85f 85f
9:50 2.5ft 7s 4s 13 16 mph 1009.8mb 86f 85f
8:50 2.5ft 7s 4s 16 18 mph 1009.8mb 86f 85f
7:50 2.5ft 11s 4s 16 18 mph 1010.4mb 86f 86f
6:50 2.5ft 6s 4s 13 16 mph 1011.1mb 86f 86f
5:50 2.5ft 4s 4s 13 16 mph 1011.7mb 86f 86f
4:50 2.5ft 7s 4s 11 13 mph 1012.2mb 86f 86f
3:50 2.5ft 6s 4s 11 13 mph 1012.3mb 86f 86f
2:50 2.5ft 4s 4s 11
mph
1012mb 85f 86f
1:50 2.5ft 6s 4s 11 13 mph 1011.7mb 85f 86f
12:50 2.5ft 7s 4s 11 13 mph 1011.3mb 85f 86f
11:50 2.5ft 7s 4s 13 16 mph 1010.6mb 85f 85f
10:50 2ft 6s 4s 13 16 mph 1010.5mb 85f 85f
9:50 1.6ft 6s 4s 13 16 mph 1010.3mb 85f 85f
8:50 1.6ft 6s 4s 13
mph
1010.4mb 85f 85f
7:50 1.6ft 6s 5s 9
mph
1010.8mb 85f 85f
6:50 1.3ft 6s 4s 7 9 mph 1011.3mb 85f 85f
5:50 1.3ft 6s 5s 9
mph
1011.9mb 86f 85f
4:50 1.6ft 6s 4s 7 9 mph 1012.5mb 85f 85f
3:50 1.6ft 6s 4s 9 11 mph 1013mb 85f 85f
2:50 2ft 5s 4s 9 11 mph 1012.5mb 85f 85f
1:50 2.5ft 6s 4s 11
mph
1011.8mb 85f 85f
12:50 2ft 5s 4s 9 11 mph 1011.2mb 86f 86f
vie 08/28 11:50 2ft 5s 4s 9 11 mph 1010.4mb 86f 86f
10:50 2ft 5s 4s 9 11 mph 1010.2mb 86f 86f
9:50 2ft 6s 4s 9
mph
1010.1mb 87f 85f
8:50 2ft 6s 4s 9 11 mph 1009.9mb 86f 86f
7:50 2ft 5s 4s 7 9 mph 1010.4mb 87f 86f
6:50 2ft 6s 4s 7
mph
1011.2mb 86f 85f
5:50 2ft 6s 4s 7
mph
1012mb 86f 85f
4:50 2ft 7s 4s 7 9 mph 1012.4mb 85f 85f
3:50 2ft 6s 4s 9 11 mph 1012.5mb 85f 85f
2:50 2ft 7s 4s 11 13 mph 1012.4mb 85f 85f
1:50 2ft 6s 4s 11 13 mph 1012.2mb 85f 85f
12:50 2ft 6s 4s 9 11 mph 1012.1mb 84f 85f
11:50 2ft 7s 4s 11
mph
1011.7mb 84f 85f
10:50 2.5ft 6s 4s 11 13 mph 1011.8mb 84f 85f
9:50 2.5ft 4s 4s 13 16 mph 1011.6mb 84f 85f
8:50 2ft 6s 4s 13 16 mph 1011.7mb 85f 85f
7:50 2ft 6s 4s 11 13 mph 1012.2mb 85f 85f
6:50 2.5ft 5s 4s 11 13 mph 1012.7mb 84f 85f
5:50 2.5ft 7s 4s 13 16 mph 1012.9mb 84f 85f
4:50 2.5ft 6s 4s 13 16 mph 1013.3mb 84f 85f
3:50 2.5ft 7s 4s 13 16 mph 1013mb 84f 85f
2:50 2.5ft 7s 4s 11 13 mph 1013.1mb 84f 85f
1:50 2.5ft 7s 4s 13 16 mph 1013mb 85f 85f
12:50 2.5ft 6s 4s 13 16 mph 1012.5mb 85f 85f
jue 08/27 11:50 2.5ft 7s 4s 13 16 mph 1012.1mb 85f 85f
10:50 2ft 7s 4s 13 16 mph 1011.4mb 85f 85f
9:50 2ft 7s 4s 11 13 mph 1011.2mb 85f 85f
8:50 2ft 6s 4s 13 16 mph 1011.6mb 85f 85f
7:50 2ft 6s 4s 11 13 mph 1012.3mb 85f 85f
6:50 2ft 6s 4s 11
mph
1012.7mb 85f 85f
5:50 2ft 7s 5s 11 13 mph 1013.4mb 85f 85f
4:50 2ft 7s 5s 11 13 mph 1013.8mb 85f 85f
3:50 2.5ft 7s 5s 9 11 mph 1014mb 85f 85f
2:50 2.5ft 7s 5s 9 11 mph 1013.7mb 85f 84f
1:50 2ft 7s 5s 9 11 mph 1013.7mb 84f 84f
12:50 2ft 7s 5s 7 9 mph 1013.5mb 84f 84f
11:50 2ft 7s 5s 7 9 mph 1012.9mb 84f 84f
10:50 2.5ft 7s 5s 7
mph
1012.7mb 84f 84f
9:50 2.5ft 7s 5s 7
mph
1012.5mb 84f 84f
8:50 2ft 6s 5s 7 9 mph 1012.3mb 84f 84f
7:50 2.5ft 7s 5s 7 9 mph 1012.4mb 84f 84f
6:50 2.5ft 6s 5s 9 11 mph 1013mb 84f 84f
5:50 2.5ft 6s 5s 9 11 mph 1013.8mb 85f 84f
4:50 2.5ft 7s 5s 9 11 mph 1014.3mb 85f 84f
3:50 2ft 7s 5s 9 11 mph 1014.3mb 85f 84f
2:50 1.6ft 7s 5s 11
mph
1014.5mb 85f 84f
1:50 1.6ft 7s 4s 9 11 mph 1013.9mb 85f 84f
12:50 2ft 7s 5s 9 11 mph 1013.2mb 85f 84f
mié 08/26 11:50 2ft 7s 5s 11 13 mph 1012.5mb 85f 85f
10:50 2ft 7s 5s 11
mph
1012.6mb 85f 85f
9:50 2ft 6s 5s 9 11 mph 1012.3mb 86f 85f
8:50 1.6ft 7s 4s 7
mph
1012.5mb 85f 84f
7:50 1.6ft 6s 4s 13 16 mph 1012.9mb 85f 84f
6:50 1.6ft 7s 4s 11 13 mph 1013.3mb 85f 84f
5:50 1.6ft 7s 4s 9 11 mph 1013.9mb 85f 85f
4:50 1.6ft 7s 4s 11
mph
1014.2mb 85f 85f
3:50 1.6ft 7s 5s 9 11 mph 1014.3mb 85f 84f
2:50 1.6ft 7s 4s 11
mph
1014.1mb 85f 84f